Time;durP1;ratioP1;P1;durP2;ratioP2;P2;SDS_P1;SDS_P2;PMS_P1;PMS_P2;Temp;Humidity;BMP_temperature;BMP_pressure;BME280_temperature;BME280_humidity;BME280_pressure;Samples;Min_cycle;Max_cycle;Signal;HPM_P1;HPM_P2
2022/10/06 00:00:21;;;;;;;17.98;2.85;;;;;;;11.69;100.00;102007.59;5075165;28;20029;-63
2022/10/06 00:02:46;;;;;;;17.40;2.70;;;;;;;11.71;100.00;102015.59;5074669;28;20482;-64
2022/10/06 00:05:12;;;;;;;17.77;2.80;;;;;;;11.69;100.00;102023.50;5075221;28;20028;-63
2022/10/06 00:07:37;;;;;;;18.35;2.90;;;;;;;11.70;100.00;102029.69;5074830;28;20067;-64
2022/10/06 00:10:05;;;;;;;17.13;2.90;;;;;;;11.65;100.00;102034.91;5074857;28;20056;-62
2022/10/06 00:12:44;;;;;;;15.27;2.90;;;;;;;11.62;100.00;102040.13;5074854;28;20097;-62
2022/10/06 00:15:12;;;;;;;15.90;2.75;;;;;;;11.58;100.00;102040.06;5071296;28;20021;-62
2022/10/06 00:17:38;;;;;;;18.77;2.90;;;;;;;11.59;100.00;102052.41;5074669;28;20039;-62
2022/10/06 00:20:04;;;;;;;17.17;2.65;;;;;;;11.57;100.00;102052.38;5074736;28;20372;-62
2022/10/06 00:22:33;;;;;;;20.55;3.00;;;;;;;11.51;100.00;102055.81;5074700;28;20380;-62
2022/10/06 00:24:58;;;;;;;16.67;3.03;;;;;;;11.50;100.00;102059.34;5074756;28;20462;-62
2022/10/06 00:27:24;;;;;;;17.10;2.92;;;;;;;11.49;100.00;102062.84;5074612;28;20025;-63
2022/10/06 00:29:49;;;;;;;19.65;3.10;;;;;;;11.47;100.00;102075.13;5074980;28;20031;-63
2022/10/06 00:32:14;;;;;;;13.90;2.75;;;;;;;11.45;100.00;102071.56;5074296;28;20545;-62
2022/10/06 00:34:40;;;;;;;16.15;2.90;;;;;;;11.39;100.00;102075.84;5074287;28;20032;-62
2022/10/06 00:37:05;;;;;;;17.33;3.00;;;;;;;11.37;100.00;102078.47;5074711;28;20022;-62
2022/10/06 00:39:30;;;;;;;15.20;2.97;;;;;;;11.35;100.00;102080.19;5074188;28;20017;-62
2022/10/06 00:41:56;;;;;;;17.20;2.83;;;;;;;11.34;100.00;102084.59;5074446;28;20122;-62
2022/10/06 00:44:21;;;;;;;17.40;3.13;;;;;;;11.39;100.00;102086.44;5074210;28;20051;-62
2022/10/06 00:46:49;;;;;;;18.20;3.00;;;;;;;11.39;100.00;102087.34;5074423;28;20024;-63
2022/10/06 00:49:29;;;;;;;17.95;3.10;;;;;;;11.36;100.00;102097.88;5074143;28;20024;-62
2022/10/06 00:52:03;;;;;;;18.30;3.13;;;;;;;11.33;100.00;102097.81;5074458;28;20033;-63
2022/10/06 00:54:30;;;;;;;18.33;2.95;;;;;;;11.25;100.00;102102.91;5073896;28;20494;-62
2022/10/06 00:56:56;;;;;;;19.42;3.08;;;;;;;11.30;100.00;102095.06;5074135;28;20029;-62
2022/10/06 00:59:21;;;;;;;16.08;2.60;;;;;;;11.28;100.00;102099.44;5073906;28;20024;-62
2022/10/06 01:01:55;;;;;;;15.15;2.80;;;;;;;11.22;100.00;102116.09;5073708;28;20025;-62
2022/10/06 01:04:22;;;;;;;14.35;2.90;;;;;;;11.21;100.00;102118.72;5071071;28;20494;-62
2022/10/06 01:06:53;;;;;;;16.27;2.80;;;;;;;11.14;100.00;102115.94;5073778;28;20029;-62
2022/10/06 01:09:21;;;;;;;15.50;2.90;;;;;;;11.18;100.00;102113.34;5072719;28;20090;-62
2022/10/06 01:11:49;;;;;;;18.08;2.78;;;;;;;11.22;100.00;102126.69;5073242;28;20048;-62
2022/10/06 01:14:16;;;;;;;17.20;3.17;;;;;;;11.14;100.00;102131.81;5073798;28;20082;-63
2022/10/06 01:16:44;;;;;;;13.70;2.88;;;;;;;11.09;100.00;102133.44;5073496;28;20033;-62
2022/10/06 01:19:34;;;;;;;19.02;2.80;;;;;;;11.14;100.00;102149.47;5073641;28;20023;-63
2022/10/06 01:22:05;;;;;;;18.40;3.00;;;;;;;11.13;100.00;102145.00;5070213;28;20027;-64
2022/10/06 01:24:30;;;;;;;15.85;3.20;;;;;;;11.12;100.00;102143.22;5069653;28;20521;-62
2022/10/06 01:26:57;;;;;;;17.55;3.25;;;;;;;11.07;100.00;102147.53;5073495;28;20029;-62
2022/10/06 01:29:24;;;;;;;17.20;2.90;;;;;;;11.05;100.00;102162.47;5072055;28;20024;-65
2022/10/06 01:31:49;;;;;;;17.88;2.95;;;;;;;11.12;100.00;102161.75;5073035;28;20040;-62
2022/10/06 01:34:15;;;;;;;19.85;3.00;;;;;;;11.09;100.00;102164.31;5073425;28;20033;-63
2022/10/06 01:36:40;;;;;;;17.42;2.72;;;;;;;11.04;100.00;102169.50;5073321;28;20052;-62
2022/10/06 01:39:06;;;;;;;18.85;3.30;;;;;;;10.99;100.00;102164.13;5071366;28;20534;-62
2022/10/06 01:41:32;;;;;;;19.40;2.88;;;;;;;10.96;100.00;102181.66;5073362;28;20356;-62
2022/10/06 01:43:58;;;;;;;19.40;3.28;;;;;;;10.96;100.00;102184.31;5073167;28;20027;-64
2022/10/06 01:46:23;;;;;;;16.70;2.92;;;;;;;10.92;100.00;102180.69;5073015;28;20383;-62
2022/10/06 01:48:48;;;;;;;18.70;2.97;;;;;;;10.96;100.00;102186.94;5073446;28;20055;-68
2022/10/06 01:51:15;;;;;;;20.77;3.13;;;;;;;10.97;100.00;102192.28;5073045;28;20024;-70
2022/10/06 01:53:40;;;;;;;17.95;3.10;;;;;;;10.96;100.00;102192.25;5073213;28;20024;-67
2022/10/06 01:56:06;;;;;;;17.23;3.25;;;;;;;10.96;100.00;102198.41;5073035;28;20065;-69
2022/10/06 01:58:31;;;;;;;16.40;2.80;;;;;;;11.01;100.00;102195.91;5072756;28;20020;-62
2022/10/06 02:00:57;;;;;;;17.40;3.10;;;;;;;11.03;100.00;102198.59;5072883;28;20107;-62
2022/10/06 02:03:22;;;;;;;19.85;2.90;;;;;;;11.03;100.00;102198.59;5071919;28;20375;-64
2022/10/06 02:05:47;;;;;;;19.45;3.33;;;;;;;11.01;100.00;102193.25;5072751;28;20372;-64
2022/10/06 02:08:13;;;;;;;18.10;3.20;;;;;;;10.98;100.00;102193.19;5072788;28;20495;-63
2022/10/06 02:10:38;;;;;;;19.55;3.20;;;;;;;10.93;100.00;102193.06;5072529;28;20041;-62
2022/10/06 02:13:03;;;;;;;19.27;3.38;;;;;;;10.88;100.00;102196.44;5072621;28;20376;-63
2022/10/06 02:15:32;;;;;;;19.85;3.10;;;;;;;10.90;100.00;102207.97;5072410;28;20063;-62
2022/10/06 02:17:57;;;;;;;20.98;3.45;;;;;;;10.88;100.00;102209.66;5072601;28;20085;-64
2022/10/06 02:20:22;;;;;;;19.63;3.50;;;;;;;10.86;100.00;102211.38;5072758;28;20020;-64
2022/10/06 02:22:48;;;;;;;18.50;3.35;;;;;;;10.78;100.00;102212.09;5072739;28;20490;-63
2022/10/06 02:25:13;;;;;;;18.40;3.10;;;;;;;10.77;100.00;102222.63;5071181;28;20132;-63
2022/10/06 02:27:38;;;;;;;20.60;3.30;;;;;;;10.71;100.00;102223.38;5072421;28;20028;-62
2022/10/06 02:30:07;;;;;;;19.30;3.28;;;;;;;10.70;100.00;102234.78;5072827;28;20036;-63
2022/10/06 02:32:35;;;;;;;21.02;3.08;;;;;;;10.63;100.00;102235.53;5072391;28;20039;-63
2022/10/06 02:35:02;;;;;;;19.92;3.20;;;;;;;10.59;100.00;102234.53;5072723;28;20029;-63
2022/10/06 02:37:28;;;;;;;17.92;3.25;;;;;;;10.56;100.00;102238.84;5072852;28;20035;-63
2022/10/06 02:39:54;;;;;;;18.50;3.42;;;;;;;10.46;100.00;102245.63;5072335;28;20016;-63
2022/10/06 02:42:20;;;;;;;18.88;3.20;;;;;;;10.46;100.00;102240.34;5072621;28;20031;-65
2022/10/06 02:44:45;;;;;;;21.33;3.40;;;;;;;10.41;100.00;102253.44;5071321;28;20479;-66
2022/10/06 02:47:15;;;;;;;19.23;3.10;;;;;;;10.36;100.00;102262.09;5072273;28;20107;-63
2022/10/06 02:49:40;;;;;;;22.02;3.30;;;;;;;10.38;100.00;102265.66;5072460;28;20033;-63
2022/10/06 02:52:07;;;;;;;22.77;3.30;;;;;;;10.36;100.00;102262.97;5072424;28;20429;-64
2022/10/06 02:54:34;;;;;;;21.73;3.65;;;;;;;10.32;100.00;102270.75;5071262;28;20352;-65
2022/10/06 02:56:59;;;;;;;21.83;3.42;;;;;;;10.29;100.00;102282.13;5072175;28;20021;-64
2022/10/06 02:59:24;;;;;;;18.02;3.08;;;;;;;10.21;100.00;102288.97;5071370;28;20020;-67
2022/10/06 03:01:51;;;;;;;21.60;3.50;;;;;;;10.12;100.00;102285.19;5071971;28;20021;-64
2022/10/06 03:04:16;;;;;;;16.75;3.13;;;;;;;10.10;100.00;102281.59;5072274;28;20382;-63
2022/10/06 03:06:42;;;;;;;20.52;3.45;;;;;;;10.10;100.00;102286.00;5072354;28;20025;-64
2022/10/06 03:09:09;;;;;;;21.08;3.60;;;;;;;10.04;100.00;102297.28;5078967;28;20062;-64
2022/10/06 03:11:37;;;;;;;19.42;3.22;;;;;;;10.00;100.00;102295.38;5071811;28;20060;-63
2022/10/06 03:14:02;;;;;;;22.10;3.53;;;;;;;9.95;100.00;102305.81;5072229;28;20024;-64
2022/10/06 03:16:31;;;;;;;17.65;3.15;;;;;;;9.93;100.00;102306.63;5071861;28;20483;-65
2022/10/06 03:18:57;;;;;;;19.27;3.40;;;;;;;9.90;100.00;102310.09;5071947;28;20490;-64
2022/10/06 03:21:28;;;;;;;19.10;3.45;;;;;;;9.82;100.00;102311.59;5072385;28;20103;-63
2022/10/06 03:23:55;;;;;;;22.48;3.42;;;;;;;9.83;100.00;102317.75;5071950;28;20077;-63
2022/10/06 03:26:26;;;;;;;18.10;3.15;;;;;;;9.83;100.00;102317.75;5071886;28;20486;-62
2022/10/06 03:28:51;;;;;;;20.83;3.10;;;;;;;9.77;100.00;102319.38;5072044;28;20025;-63
2022/10/06 03:31:17;;;;;;;20.77;3.35;;;;;;;9.75;100.00;102317.53;5074904;28;20028;-64
2022/10/06 03:33:42;;;;;;;20.45;3.40;;;;;;;9.74;100.00;102328.94;5075518;28;20459;-63
2022/10/06 03:36:13;;;;;;;17.98;3.13;;;;;;;9.69;100.00;102331.44;5076023;28;20074;-64
2022/10/06 03:38:39;;;;;;;19.10;3.40;;;;;;;9.63;100.00;102336.53;5071434;28;20357;-63
2022/10/06 03:41:08;;;;;;;21.75;3.38;;;;;;;9.60;100.00;102339.06;5073998;28;20078;-66
2022/10/06 03:43:35;;;;;;;20.08;3.65;;;;;;;9.54;100.00;102338.88;5071496;28;20052;-63
2022/10/06 03:46:01;;;;;;;21.25;3.30;;;;;;;9.52;100.00;102344.13;5075632;28;20091;-64
2022/10/06 03:48:32;;;;;;;19.67;3.67;;;;;;;9.54;100.00;102349.44;5075476;28;20029;-63
2022/10/06 03:51:01;;;;;;;21.73;3.80;;;;;;;9.51;100.00;102357.22;5075000;28;20024;-64
2022/10/06 03:53:28;;;;;;;20.88;4.00;;;;;;;9.50;100.00;102348.44;5075352;28;20115;-62
2022/10/06 03:56:11;;;;;;;21.83;3.70;;;;;;;9.43;100.00;102357.88;5075062;28;20099;-62
2022/10/06 03:58:40;;;;;;;22.20;3.70;;;;;;;9.42;100.00;102365.75;5071347;28;20029;-63
2022/10/06 04:01:07;;;;;;;20.77;3.58;;;;;;;9.37;100.00;102362.97;5071100;28;20040;-63
2022/10/06 04:03:33;;;;;;;23.10;4.07;;;;;;;9.35;100.00;102369.03;5075299;28;20020;-64
2022/10/06 04:06:01;;;;;;;22.15;3.75;;;;;;;9.31;100.00;102377.72;5074980;28;20093;-65
2022/10/06 04:08:28;;;;;;;20.83;3.80;;;;;;;9.28;100.00;102378.50;5074861;28;20028;-63
2022/10/06 04:10:54;;;;;;;22.35;3.75;;;;;;;9.27;100.00;102384.59;5074859;28;20399;-65
2022/10/06 04:13:21;;;;;;;21.70;3.70;;;;;;;9.23;100.00;102393.25;5074742;28;20104;-64
2022/10/06 04:15:47;;;;;;;21.52;3.78;;;;;;;9.18;100.00;102398.38;5074661;28;20033;-65
2022/10/06 04:18:15;;;;;;;21.05;3.80;;;;;;;9.11;100.00;102398.13;5074845;28;20468;-64
2022/10/06 04:20:41;;;;;;;22.25;3.83;;;;;;;9.07;100.00;102400.66;5074892;28;20378;-64
2022/10/06 04:23:06;;;;;;;22.30;3.97;;;;;;;9.03;100.00;102413.69;5074641;28;20099;-65
2022/10/06 04:25:33;;;;;;;20.83;3.75;;;;;;;9.04;100.00;102403.19;5074728;28;20387;-66
2022/10/06 04:27:59;;;;;;;21.30;3.95;;;;;;;9.11;100.00;102419.22;5070343;28;20103;-64
2022/10/06 04:30:25;;;;;;;21.42;3.88;;;;;;;9.05;100.00;102414.63;5074393;28;20124;-63
2022/10/06 04:32:50;;;;;;;20.65;3.97;;;;;;;9.01;100.00;102418.91;5074817;28;20062;-66
2022/10/06 04:35:16;;;;;;;23.98;4.25;;;;;;;8.97;100.00;102421.34;5074414;28;20017;-64
2022/10/06 04:37:41;;;;;;;22.70;4.50;;;;;;;8.95;100.00;102421.31;5074607;28;20068;-65
2022/10/06 04:40:07;;;;;;;24.08;4.18;;;;;;;8.97;100.00;102431.91;5074437;28;20119;-66
2022/10/06 04:42:32;;;;;;;21.92;4.30;;;;;;;8.96;100.00;102430.13;5073624;28;20025;-66
2022/10/06 04:44:58;;;;;;;21.95;3.88;;;;;;;8.94;100.00;102431.81;5074448;28;20025;-65
2022/10/06 04:47:23;;;;;;;22.92;4.05;;;;;;;8.87;100.00;102439.50;5074244;28;20025;-66
2022/10/06 04:49:48;;;;;;;21.65;3.92;;;;;;;8.86;100.00;102435.06;5074015;28;20044;-63
2022/10/06 04:52:14;;;;;;;22.15;4.05;;;;;;;8.84;100.00;102436.75;5074177;28;20102;-64
2022/10/06 04:54:39;;;;;;;23.95;4.30;;;;;;;8.80;100.00;102448.03;5074162;28;20016;-63
2022/10/06 04:57:04;;;;;;;20.92;3.90;;;;;;;8.77;100.00;102447.03;5074153;28;20043;-63
2022/10/06 05:02:14;;;;;;;23.50;4.30;;;;;;;8.72;100.00;102452.09;5074156;28;20094;-62
2022/10/06 05:04:39;;;;;;;23.90;4.30;;;;;;;8.67;100.00;102458.97;5073749;28;20456;-63
2022/10/06 05:07:05;;;;;;;22.60;3.95;;;;;;;8.64;100.00;102459.72;5073685;28;20468;-63
2022/10/06 05:09:30;;;;;;;22.75;3.97;;;;;;;8.58;100.00;102471.75;5073879;28;20020;-64
2022/10/06 05:11:56;;;;;;;23.67;4.03;;;;;;;8.59;100.00;102476.22;5073171;28;20127;-63
2022/10/06 05:14:22;;;;;;;24.35;4.32;;;;;;;8.55;100.00;102480.47;5073866;28;20107;-64
2022/10/06 05:16:47;;;;;;;21.25;4.07;;;;;;;8.51;100.00;102481.19;5073932;28;20520;-66
2022/10/06 05:19:13;;;;;;;23.55;4.18;;;;;;;8.51;100.00;102483.84;5070729;28;20169;-66
2022/10/06 05:21:39;;;;;;;25.40;4.10;;;;;;;8.48;100.00;102479.31;5073430;28;20025;-66
2022/10/06 05:24:04;;;;;;;24.60;4.38;;;;;;;8.45;100.00;102494.13;5073832;28;20111;-65
2022/10/06 05:26:33;;;;;;;23.52;4.20;;;;;;;8.37;100.00;102499.97;5073701;28;20033;-65
2022/10/06 05:28:58;;;;;;;23.23;4.50;;;;;;;8.35;100.00;102499.00;5073140;28;20391;-65
2022/10/06 05:31:31;;;;;;;23.33;4.68;;;;;;;8.32;100.00;102504.13;5070648;28;20029;-63
2022/10/06 05:33:57;;;;;;;23.83;4.28;;;;;;;8.30;100.00;102504.91;5070868;28;20490;-63
2022/10/06 05:36:26;;;;;;;23.75;4.20;;;;;;;8.33;100.00;102508.59;5072181;28;20118;-62
2022/10/06 05:38:52;;;;;;;23.50;4.78;;;;;;;8.32;100.00;102509.41;5072516;28;20024;-64
2022/10/06 05:41:19;;;;;;;21.95;4.13;;;;;;;8.28;100.00;102525.03;5071358;28;20074;-63
2022/10/06 05:43:46;;;;;;;22.17;4.22;;;;;;;8.28;100.00;102533.84;5071984;28;20052;-64
2022/10/06 05:46:19;;;;;;;25.85;4.68;;;;;;;8.29;100.00;102534.75;5072571;28;20036;-63
2022/10/06 05:48:48;;;;;;;26.55;4.35;;;;;;;8.24;100.00;102541.56;5072355;28;20059;-63
2022/10/06 05:51:14;;;;;;;23.23;4.50;;;;;;;8.25;100.00;102538.97;5069393;28;20972;-63
2022/10/06 05:53:40;;;;;;;27.30;4.60;;;;;;;8.27;100.00;102542.59;5070891;28;20052;-65
2022/10/06 05:56:10;;;;;;;24.83;4.78;;;;;;;8.26;100.00;102538.16;5071212;28;20033;-64
2022/10/06 05:58:38;;;;;;;24.90;4.45;;;;;;;8.25;100.00;102540.72;5071482;28;20058;-64
2022/10/06 06:01:17;;;;;;;25.23;4.10;;;;;;;8.23;100.00;102550.28;5071525;28;20103;-63
2022/10/06 06:03:54;;;;;;;22.45;4.38;;;;;;;8.22;100.00;102554.66;5072117;28;20032;-63
2022/10/06 06:06:28;;;;;;;25.95;4.50;;;;;;;8.21;100.00;102552.88;5068813;28;20464;-62
2022/10/06 06:08:56;;;;;;;28.25;4.70;;;;;;;8.19;100.00;102565.09;5069461;28;20041;-62
2022/10/06 06:11:25;;;;;;;26.95;4.93;;;;;;;8.18;100.00;102572.09;5068637;28;20080;-63
2022/10/06 06:13:56;;;;;;;23.60;4.15;;;;;;;8.20;100.00;102566.91;5070849;28;20450;-63
2022/10/06 06:16:21;;;;;;;24.92;4.40;;;;;;;8.23;100.00;102566.09;5072372;28;20029;-62
2022/10/06 06:18:47;;;;;;;24.63;4.45;;;;;;;8.26;100.00;102567.13;5072043;28;20025;-64
2022/10/06 06:21:13;;;;;;;24.35;4.47;;;;;;;8.27;100.00;102568.94;5071627;28;20108;-62
2022/10/06 06:23:41;;;;;;;25.55;4.30;;;;;;;8.30;100.00;102569.06;5071907;28;20020;-63
2022/10/06 06:26:09;;;;;;;25.35;4.32;;;;;;;8.29;100.00;102572.53;5071201;28;20016;-62
2022/10/06 06:28:35;;;;;;;24.10;4.15;;;;;;;8.27;100.00;102578.56;5071847;28;20029;-62
2022/10/06 06:31:13;;;;;;;22.33;4.00;;;;;;;8.28;100.00;102580.38;5071735;28;20052;-63
2022/10/06 06:33:40;;;;;;;26.13;4.53;;;;;;;8.29;100.00;102587.47;5071400;28;20028;-63
2022/10/06 06:36:23;;;;;;;24.10;4.28;;;;;;;8.33;100.00;102585.00;5071589;28;20033;-64
2022/10/06 06:38:50;;;;;;;26.05;4.65;;;;;;;8.39;100.00;102587.00;5071034;28;20071;-64
2022/10/06 06:41:27;;;;;;;26.33;4.20;;;;;;;8.44;100.00;102595.09;5071407;28;20442;-63
2022/10/06 06:43:53;;;;;;;22.75;4.15;;;;;;;8.46;100.00;102596.06;5071363;28;20054;-64
2022/10/06 06:46:23;;;;;;;25.00;4.85;;;;;;;8.47;100.00;102597.88;5071603;28;20410;-63
2022/10/06 06:48:53;;;;;;;23.92;4.35;;;;;;;8.51;100.00;102610.34;5071064;28;20028;-64
2022/10/06 06:51:21;;;;;;;24.88;4.80;;;;;;;8.57;100.00;102614.97;5071528;28;20040;-63
2022/10/06 06:53:47;;;;;;;24.33;4.50;;;;;;;8.61;100.00;102617.78;5071406;28;20063;-63
2022/10/06 06:56:13;;;;;;;22.52;4.35;;;;;;;8.65;100.00;102613.53;5071352;28;20104;-66
2022/10/06 06:58:38;;;;;;;23.95;3.95;;;;;;;8.69;100.00;102624.28;5072049;28;20425;-63
2022/10/06 07:01:12;;;;;;;24.30;4.78;;;;;;;8.75;100.00;102620.09;5070911;28;20464;-64
2022/10/06 07:03:39;;;;;;;24.20;4.03;;;;;;;8.79;100.00;102624.66;5068211;28;20080;-63
2022/10/06 07:06:08;;;;;;;25.15;4.50;;;;;;;8.83;100.00;102629.22;5074050;28;20024;-64
2022/10/06 07:08:36;;;;;;;24.38;4.47;;;;;;;8.86;100.00;102640.75;5075507;28;20107;-64
2022/10/06 07:11:14;;;;;;;27.20;5.15;;;;;;;8.92;100.00;102642.75;5075126;28;20055;-65
2022/10/06 07:13:41;;;;;;;25.10;4.38;;;;;;;9.00;100.00;102643.97;5071387;28;20040;-63
2022/10/06 07:27:05;;;;;;;24.55;4.63;;;;;;;9.34;100.00;102663.72;5075354;28;20090;-64
2022/10/06 07:29:31;;;;;;;22.95;4.30;;;;;;;9.40;100.00;102669.25;5074711;28;20017;-66
2022/10/06 07:31:56;;;;;;;22.70;4.78;;;;;;;9.43;100.00;102672.00;5071945;28;20045;-63
2022/10/06 07:34:21;;;;;;;25.90;4.97;;;;;;;9.46;100.00;102681.78;5073925;28;20485;-64
2022/10/06 07:36:47;;;;;;;22.20;4.13;;;;;;;9.51;100.00;102688.16;5073967;28;20663;-63
2022/10/06 07:39:13;;;;;;;25.10;4.88;;;;;;;9.60;100.00;102691.13;5073329;28;20422;-63
2022/10/06 07:41:38;;;;;;;23.92;4.80;;;;;;;9.74;100.00;102699.59;5072404;28;20082;-63
2022/10/06 07:44:04;;;;;;;23.20;4.45;;;;;;;9.81;100.00;102695.41;5074475;28;20387;-63
2022/10/06 07:46:31;;;;;;;23.83;4.40;;;;;;;9.87;100.00;102700.03;5073204;28;20108;-63
2022/10/06 07:48:56;;;;;;;23.25;4.72;;;;;;;9.92;100.00;102711.66;5074211;28;20025;-63
2022/10/06 07:51:26;;;;;;;24.65;4.47;;;;;;;10.00;100.00;102707.53;5074166;28;20034;-63
2022/10/06 07:53:52;;;;;;;24.75;4.68;;;;;;;10.06;100.00;102705.16;5073992;28;20021;-63
2022/10/06 07:56:21;;;;;;;23.20;4.10;;;;;;;10.15;100.00;102712.50;5074532;28;20020;-64
2022/10/06 07:58:47;;;;;;;22.52;3.78;;;;;;;10.18;100.00;102714.34;5072913;28;20020;-63
2022/10/06 08:01:16;;;;;;;22.60;3.92;;;;;;;10.24;100.00;102712.81;5074093;28;20020;-63
2022/10/06 08:03:43;;;;;;;24.30;4.97;;;;;;;10.32;100.00;102718.38;5073980;28;20021;-63
2022/10/06 08:06:12;;;;;;;22.13;4.32;;;;;;;10.42;100.00;102717.88;5073957;28;20107;-63
2022/10/06 08:08:39;;;;;;;25.83;4.70;;;;;;;10.52;100.00;102724.41;5073014;28;20115;-63
2022/10/06 08:11:06;;;;;;;23.05;4.30;;;;;;;10.59;100.00;102728.16;5074338;28;20083;-69
2022/10/06 08:13:34;;;;;;;25.02;4.28;;;;;;;10.69;100.00;102730.25;5073582;28;20034;-68
2022/10/06 08:16:08;;;;;;;23.52;4.20;;;;;;;10.72;100.00;102733.00;5073657;28;20024;-66
2022/10/06 08:18:33;;;;;;;22.33;4.20;;;;;;;10.79;100.00;102736.75;5071585;28;20029;-65
2022/10/06 08:20:58;;;;;;;23.88;4.15;;;;;;;10.84;100.00;102742.22;5073686;28;20031;-67
2022/10/06 08:23:24;;;;;;;24.50;4.40;;;;;;;10.89;100.00;102741.53;5073466;28;20033;-68
2022/10/06 08:25:52;;;;;;;21.83;3.67;;;;;;;10.99;100.00;102748.00;5073689;28;20051;-68
2022/10/06 08:28:19;;;;;;;21.98;4.00;;;;;;;11.07;100.00;102751.81;5074278;28;20403;-64
2022/10/06 08:30:44;;;;;;;27.35;4.70;;;;;;;11.15;100.00;102755.59;5073548;28;20032;-63
2022/10/06 08:33:10;;;;;;;23.92;4.15;;;;;;;11.24;100.00;102756.72;5073532;28;20035;-71
2022/10/06 08:35:36;;;;;;;23.15;3.90;;;;;;;11.32;100.00;102760.53;5073462;28;20139;-64
2022/10/06 08:38:01;;;;;;;22.70;4.20;;;;;;;11.45;100.00;102760.06;5073371;28;20025;-64
2022/10/06 08:40:31;;;;;;;23.20;4.20;;;;;;;11.61;100.00;102774.69;5074085;28;20063;-65
2022/10/06 08:42:59;;;;;;;22.35;4.53;;;;;;;11.74;100.00;102773.31;5074868;28;20040;-64
2022/10/06 08:45:31;;;;;;;20.60;3.63;;;;;;;11.94;100.00;102773.03;5073192;28;20541;-63
2022/10/06 08:48:01;;;;;;;20.88;3.60;;;;;;;12.16;100.00;102767.50;5073336;28;20063;-65
2022/10/06 08:50:31;;;;;;;23.55;4.22;;;;;;;12.46;100.00;102779.78;5073242;28;20036;-65
2022/10/06 08:53:20;;;;;;;24.17;3.80;;;;;;;12.68;100.00;102781.28;5072883;28;20081;-66
2022/10/06 08:55:48;;;;;;;20.55;3.75;;;;;;;12.67;100.00;102786.56;5071406;28;20042;-65
2022/10/06 08:58:32;;;;;;;22.25;3.75;;;;;;;12.65;100.00;102785.59;5070109;28;20056;-66
2022/10/06 09:01:06;;;;;;;21.55;3.92;;;;;;;12.74;100.00;102783.19;5072448;28;20056;-64
2022/10/06 09:03:32;;;;;;;22.75;3.80;;;;;;;13.02;100.00;102786.56;5071968;28;20471;-63
2022/10/06 09:06:11;;;;;;;20.73;3.55;;;;;;;13.56;100.00;102790.53;5073334;28;20111;-62
2022/10/06 09:08:36;;;;;;;20.17;3.60;;;;;;;13.62;100.00;102797.75;5073053;28;20032;-63
2022/10/06 09:11:29;;;;;;;22.00;4.03;;;;;;;13.44;100.00;102799.13;5072838;28;20044;-63
2022/10/06 09:13:59;;;;;;;;;;;;;;;13.47;100.00;102808.91;5071454;28;20025;-63
2022/10/06 09:16:28;;;;;;;22.13;3.70;;;;;;;13.31;100.00;102803.22;5073015;28;19912;-63
2022/10/06 09:19:19;;;;;;;21.33;3.58;;;;;;;13.43;100.00;102813.25;5073056;28;20028;-62
2022/10/06 09:21:53;;;;;;;20.35;3.53;;;;;;;13.67;100.00;102812.91;5069095;28;20040;-62
2022/10/06 09:24:33;;;;;;;21.20;3.70;;;;;;;14.14;100.00;102822.81;5072789;28;20491;-64
2022/10/06 09:27:01;;;;;;;21.13;3.95;;;;;;;14.65;100.00;102821.19;5070046;28;20017;-63
2022/10/06 09:29:30;;;;;;;22.63;3.80;;;;;;;14.94;100.00;102813.72;5072219;28;20032;-64
2022/10/06 09:31:55;;;;;;;21.58;3.97;;;;;;;15.38;100.00;102810.00;5072267;28;20036;-63
2022/10/06 09:34:23;;;;;;;19.50;3.60;;;;;;;15.86;100.00;102824.06;5072466;28;20050;-64
2022/10/06 09:37:08;;;;;;;21.27;3.60;;;;;;;16.09;100.00;102827.03;5072774;28;20036;-65
2022/10/06 09:39:38;;;;;;;21.05;3.50;;;;;;;16.20;100.00;102822.72;5070129;28;20123;-67
2022/10/06 09:42:12;;;;;;;21.63;3.40;;;;;;;16.71;100.00;102836.63;5071902;28;20091;-67
2022/10/06 09:44:50;;;;;;;20.88;3.67;;;;;;;17.03;100.00;102828.06;5072363;28;20482;-66
2022/10/06 09:47:31;;;;;;;21.23;3.67;;;;;;;17.04;100.00;102828.97;5072332;28;20538;-67
2022/10/06 09:50:22;;;;;;;20.13;3.37;;;;;;;17.55;100.00;102818.69;5069533;28;20070;-66
2022/10/06 09:52:56;;;;;;;19.75;3.70;;;;;;;17.56;100.00;102834.72;5009929;28;20049;-67
2022/10/06 09:55:27;;;;;;;21.58;3.35;;;;;;;17.69;100.00;102835.72;5010265;28;20481;-70
2022/10/06 09:57:55;;;;;;;20.30;3.25;;;;;;;18.17;100.00;102832.41;5005197;28;20029;-71
2022/10/06 10:00:31;;;;;;;21.33;3.40;;;;;;;18.36;100.00;102839.59;5006852;28;20037;-70
2022/10/06 10:03:17;;;;;;;18.98;3.38;;;;;;;18.58;100.00;102829.88;5009413;28;20413;-69
2022/10/06 10:05:48;;;;;;;21.20;3.72;;;;;;;18.57;100.00;102843.25;5009985;28;20034;-70
2022/10/06 10:08:26;;;;;;;19.55;3.30;;;;;;;18.89;100.00;102846.00;5010322;28;20034;-71
2022/10/06 10:11:06;;;;;;;18.35;3.35;;;;;;;19.18;100.00;102834.41;5009644;28;20444;-70
2022/10/06 10:13:41;;;;;;;17.83;3.10;;;;;;;19.96;100.00;102833.38;5007626;28;20034;-70
2022/10/06 10:16:06;;;;;;;19.90;3.25;;;;;;;20.18;95.51;102831.53;5009339;28;20038;-69
2022/10/06 10:18:32;;;;;;;17.88;3.17;;;;;;;20.42;74.61;102831.44;5009610;28;20538;-70
2022/10/06 10:21:06;;;;;;;18.77;3.10;;;;;;;20.04;70.11;102836.06;5009305;28;20046;-70
2022/10/06 10:23:37;;;;;;;18.88;3.22;;;;;;;19.89;69.47;102836.13;5007512;28;20072;-71
2022/10/06 10:26:17;;;;;;;19.73;3.38;;;;;;;19.80;71.39;102842.41;5009350;28;20384;-69
2022/10/06 10:29:21;;;;;;;18.90;3.08;;;;;;;20.45;69.66;102842.16;5012039;28;20069;-70
2022/10/06 10:32:10;;;;;;;19.65;3.10;;;;;;;20.55;61.08;102849.25;5027649;28;20045;-70
2022/10/06 10:35:00;;;;;;;17.02;2.90;;;;;;;20.71;58.36;102850.09;5029592;28;20515;-67
2022/10/06 10:37:32;;;;;;;17.48;3.10;;;;;;;20.51;54.64;102851.03;5029313;28;20052;-65
2022/10/06 10:40:30;;;;;;;14.77;2.72;;;;;;;20.63;57.95;102841.13;5032845;28;20052;-65
2022/10/06 10:43:11;;;;;;;17.08;2.83;;;;;;;21.20;51.46;102833.59;5032612;28;20052;-67
2022/10/06 10:45:43;;;;;;;15.73;2.75;;;;;;;21.91;45.66;102835.56;5032901;28;20033;-67
2022/10/06 10:48:27;;;;;;;18.15;2.80;;;;;;;22.37;45.27;102841.31;5033029;28;20037;-68
2022/10/06 10:51:08;;;;;;;17.33;2.83;;;;;;;22.19;45.11;102837.94;5032925;28;20088;-68
2022/10/06 10:53:33;;;;;;;15.32;2.65;;;;;;;21.79;44.73;102841.09;5033060;28;20392;-68
2022/10/06 10:56:02;;;;;;;17.07;2.90;;;;;;;21.64;43.23;102841.25;5033579;28;20048;-67
2022/10/06 10:58:37;;;;;;;15.82;3.05;;;;;;;22.11;43.50;102839.81;5032928;28;20289;-64
2022/10/06 11:01:34;;;;;;;15.77;3.40;;;;;;;21.88;44.85;102846.34;5033146;28;20045;-64
2022/10/06 11:04:01;;;;;;;17.83;3.10;;;;;;;22.44;43.13;102849.28;4957355;28;20039;-65
2022/10/06 11:06:45;;;;;;;18.75;3.50;;;;;;;22.78;44.87;102850.59;4955052;29;20031;-65
2022/10/06 11:09:39;;;;;;;16.98;3.17;;;;;;;22.37;43.00;102842.19;5002360;28;20128;-70
2022/10/06 11:12:22;;;;;;;18.92;3.60;;;;;;;22.05;43.67;102847.97;5012332;28;20216;-71
2022/10/06 11:14:52;;;;;;;19.15;3.50;;;;;;;22.55;42.93;102845.56;5012817;28;20042;-70
2022/10/06 11:17:24;;;;;;;17.05;3.45;;;;;;;22.08;44.18;102850.63;5010140;28;20092;-70
2022/10/06 11:19:57;;;;;;;17.70;3.67;;;;;;;21.25;43.67;102855.94;5011086;28;20038;-70
2022/10/06 11:22:53;;;;;;;18.85;3.53;;;;;;;21.52;43.88;102859.31;5010229;28;20074;-68
2022/10/06 11:25:37;;;;;;;15.82;3.30;;;;;;;20.72;44.69;102863.50;5009497;28;20030;-70
2022/10/06 11:28:16;;;;;;;16.25;3.45;;;;;;;21.12;44.05;102854.25;5010573;28;20038;-70
2022/10/06 11:30:58;;;;;;;17.88;3.95;;;;;;;21.45;44.70;102857.56;5011354;28;20624;-69
2022/10/06 11:33:44;;;;;;;15.93;3.63;;;;;;;21.43;44.31;102856.66;5008668;28;20048;-69
2022/10/06 11:36:16;;;;;;;18.95;4.30;;;;;;;21.87;42.80;102851.75;5010893;28;20021;-69
2022/10/06 11:38:46;;;;;;;;;;;;;;;21.89;42.97;102853.53;5019187;28;20018;-65